sensor_id;sensor_type;location;lat;lon;timestamp;temperature;humidity
61807;DHT22;47726;52.766;6.606;2023-02-28T00:01:11;4.50;99.90
61807;DHT22;47726;52.766;6.606;2023-02-28T00:03:37;4.40;99.90
61807;DHT22;47726;52.766;6.606;2023-02-28T00:06:07;4.50;99.90
61807;DHT22;47726;52.766;6.606;2023-02-28T00:08:32;4.50;99.90
61807;DHT22;47726;52.766;6.606;2023-02-28T00:11:07;4.50;99.90
61807;DHT22;47726;52.766;6.606;2023-02-28T00:13:40;4.50;99.90
61807;DHT22;47726;52.766;6.606;2023-02-28T00:16:27;4.50;99.90
61807;DHT22;47726;52.766;6.606;2023-02-28T00:18:52;4.50;99.90
61807;DHT22;47726;52.766;6.606;2023-02-28T00:21:18;4.50;99.90
61807;DHT22;47726;52.766;6.606;2023-02-28T00:23:44;4.50;99.90
61807;DHT22;47726;52.766;6.606;2023-02-28T00:26:10;4.50;99.90
61807;DHT22;47726;52.766;6.606;2023-02-28T00:28:36;4.50;99.90
61807;DHT22;47726;52.766;6.606;2023-02-28T00:31:01;4.50;99.90
61807;DHT22;47726;52.766;6.606;2023-02-28T00:33:27;4.50;99.90
61807;DHT22;47726;52.766;6.606;2023-02-28T00:36:08;4.50;99.90
61807;DHT22;47726;52.766;6.606;2023-02-28T00:38:34;4.50;99.90
61807;DHT22;47726;52.766;6.606;2023-02-28T00:40:59;4.50;99.90
61807;DHT22;47726;52.766;6.606;2023-02-28T00:43:30;4.50;99.90
61807;DHT22;47726;52.766;6.606;2023-02-28T00:45:56;4.50;99.90
61807;DHT22;47726;52.766;6.606;2023-02-28T00:48:21;4.50;99.90
61807;DHT22;47726;52.766;6.606;2023-02-28T00:50:49;4.50;99.90
61807;DHT22;47726;52.766;6.606;2023-02-28T00:53:15;4.50;99.90
61807;DHT22;47726;52.766;6.606;2023-02-28T00:55:40;4.50;99.90
61807;DHT22;47726;52.766;6.606;2023-02-28T00:58:06;4.50;99.90
61807;DHT22;47726;52.766;6.606;2023-02-28T01:00:31;4.50;99.90
61807;DHT22;47726;52.766;6.606;2023-02-28T01:02:57;4.50;99.90
61807;DHT22;47726;52.766;6.606;2023-02-28T01:05:22;4.50;99.90
61807;DHT22;47726;52.766;6.606;2023-02-28T01:07:49;4.50;99.90
61807;DHT22;47726;52.766;6.606;2023-02-28T01:10:14;4.50;99.90
61807;DHT22;47726;52.766;6.606;2023-02-28T01:12:40;4.50;99.90
61807;DHT22;47726;52.766;6.606;2023-02-28T01:15:06;4.50;99.90
61807;DHT22;47726;52.766;6.606;2023-02-28T01:17:32;4.50;99.90
61807;DHT22;47726;52.766;6.606;2023-02-28T01:19:57;4.50;99.90
61807;DHT22;47726;52.766;6.606;2023-02-28T01:22:23;4.50;99.90
61807;DHT22;47726;52.766;6.606;2023-02-28T01:24:48;4.50;99.90
61807;DHT22;47726;52.766;6.606;2023-02-28T01:27:14;4.50;99.90
61807;DHT22;47726;52.766;6.606;2023-02-28T01:29:40;4.50;99.90
61807;DHT22;47726;52.766;6.606;2023-02-28T01:32:05;4.40;99.90
61807;DHT22;47726;52.766;6.606;2023-02-28T01:34:31;4.40;99.90
61807;DHT22;47726;52.766;6.606;2023-02-28T01:36:56;4.50;99.90
61807;DHT22;47726;52.766;6.606;2023-02-28T01:39:24;4.50;99.90
61807;DHT22;47726;52.766;6.606;2023-02-28T01:41:50;4.50;99.90
61807;DHT22;47726;52.766;6.606;2023-02-28T01:47:19;4.50;99.90
61807;DHT22;47726;52.766;6.606;2023-02-28T01:49:45;4.50;99.90
61807;DHT22;47726;52.766;6.606;2023-02-28T01:52:12;4.50;99.90
61807;DHT22;47726;52.766;6.606;2023-02-28T01:54:47;4.50;99.90
61807;DHT22;47726;52.766;6.606;2023-02-28T01:57:17;4.50;99.90
61807;DHT22;47726;52.766;6.606;2023-02-28T01:59:50;4.50;99.90
61807;DHT22;47726;52.766;6.606;2023-02-28T02:02:18;4.50;99.90
61807;DHT22;47726;52.766;6.606;2023-02-28T02:04:59;4.50;99.90
61807;DHT22;47726;52.766;6.606;2023-02-28T02:07:29;4.50;99.90
61807;DHT22;47726;52.766;6.606;2023-02-28T02:10:00;4.40;99.90
61807;DHT22;47726;52.766;6.606;2023-02-28T02:18:32;4.50;99.90
61807;DHT22;47726;52.766;6.606;2023-02-28T02:21:24;4.40;99.90
61807;DHT22;47726;52.766;6.606;2023-02-28T02:26:54;4.50;99.90
61807;DHT22;47726;52.766;6.606;2023-02-28T02:33:30;4.50;99.90
61807;DHT22;47726;52.766;6.606;2023-02-28T02:35:52;4.50;99.90
61807;DHT22;47726;52.766;6.606;2023-02-28T02:39:12;4.40;99.90
61807;DHT22;47726;52.766;6.606;2023-02-28T02:41:52;4.40;99.90
61807;DHT22;47726;52.766;6.606;2023-02-28T02:44:27;4.40;99.90
61807;DHT22;47726;52.766;6.606;2023-02-28T02:47:06;4.40;99.90
61807;DHT22;47726;52.766;6.606;2023-02-28T02:49:36;4.40;99.90
61807;DHT22;47726;52.766;6.606;2023-02-28T02:52:06;4.40;99.90
61807;DHT22;47726;52.766;6.606;2023-02-28T02:54:35;4.40;99.90
61807;DHT22;47726;52.766;6.606;2023-02-28T02:57:10;4.40;99.90
61807;DHT22;47726;52.766;6.606;2023-02-28T02:59:39;4.40;99.90
61807;DHT22;47726;52.766;6.606;2023-02-28T03:02:08;4.40;99.90
61807;DHT22;47726;52.766;6.606;2023-02-28T03:04:42;4.40;99.90
61807;DHT22;47726;52.766;6.606;2023-02-28T03:07:09;4.40;99.90
61807;DHT22;47726;52.766;6.606;2023-02-28T03:09:35;4.40;99.90
61807;DHT22;47726;52.766;6.606;2023-02-28T03:12:04;4.40;99.90
61807;DHT22;47726;52.766;6.606;2023-02-28T03:15:04;4.40;99.90
61807;DHT22;47726;52.766;6.606;2023-02-28T03:18:00;4.40;99.90
61807;DHT22;47726;52.766;6.606;2023-02-28T03:23:07;4.40;99.90
61807;DHT22;47726;52.766;6.606;2023-02-28T03:28:15;4.30;99.90
61807;DHT22;47726;52.766;6.606;2023-02-28T03:30:57;4.40;99.90
61807;DHT22;47726;52.766;6.606;2023-02-28T03:33:30;4.30;99.90
61807;DHT22;47726;52.766;6.606;2023-02-28T03:36:06;4.40;99.90
61807;DHT22;47726;52.766;6.606;2023-02-28T03:38:56;4.30;99.90
61807;DHT22;47726;52.766;6.606;2023-02-28T03:41:29;4.40;99.90
61807;DHT22;47726;52.766;6.606;2023-02-28T03:44:07;4.30;99.90
61807;DHT22;47726;52.766;6.606;2023-02-28T03:46:38;4.30;99.90
61807;DHT22;47726;52.766;6.606;2023-02-28T03:49:19;4.30;99.90
61807;DHT22;47726;52.766;6.606;2023-02-28T03:51:46;4.30;99.90
61807;DHT22;47726;52.766;6.606;2023-02-28T03:54:19;4.30;99.90
61807;DHT22;47726;52.766;6.606;2023-02-28T03:56:59;4.30;99.90
61807;DHT22;47726;52.766;6.606;2023-02-28T03:59:36;4.30;99.90
61807;DHT22;47726;52.766;6.606;2023-02-28T04:02:02;4.30;99.90
61807;DHT22;47726;52.766;6.606;2023-02-28T04:04:28;4.30;99.90
61807;DHT22;47726;52.766;6.606;2023-02-28T04:07:03;4.30;99.90
61807;DHT22;47726;52.766;6.606;2023-02-28T04:09:28;4.30;99.90
61807;DHT22;47726;52.766;6.606;2023-02-28T04:11:54;4.30;99.90
61807;DHT22;47726;52.766;6.606;2023-02-28T04:14:23;4.30;99.90
61807;DHT22;47726;52.766;6.606;2023-02-28T04:16:49;4.30;99.90
61807;DHT22;47726;52.766;6.606;2023-02-28T04:19:16;4.30;99.90
61807;DHT22;47726;52.766;6.606;2023-02-28T04:21:44;4.30;99.90
61807;DHT22;47726;52.766;6.606;2023-02-28T04:24:16;4.30;99.90
61807;DHT22;47726;52.766;6.606;2023-02-28T04:26:44;4.30;99.90
61807;DHT22;47726;52.766;6.606;2023-02-28T04:29:12;4.30;99.90
61807;DHT22;47726;52.766;6.606;2023-02-28T04:31:38;4.30;99.90
61807;DHT22;47726;52.766;6.606;2023-02-28T04:34:04;4.30;99.90
61807;DHT22;47726;52.766;6.606;2023-02-28T04:36:30;4.30;99.90
61807;DHT22;47726;52.766;6.606;2023-02-28T04:38:56;4.30;99.90
61807;DHT22;47726;52.766;6.606;2023-02-28T04:41:22;4.30;99.90
61807;DHT22;47726;52.766;6.606;2023-02-28T04:43:48;4.30;99.90
61807;DHT22;47726;52.766;6.606;2023-02-28T04:46:14;4.30;99.90
61807;DHT22;47726;52.766;6.606;2023-02-28T04:48:40;4.30;99.90
61807;DHT22;47726;52.766;6.606;2023-02-28T04:51:08;4.30;99.90
61807;DHT22;47726;52.766;6.606;2023-02-28T04:53:35;4.30;99.90
61807;DHT22;47726;52.766;6.606;2023-02-28T04:56:01;4.30;99.90
61807;DHT22;47726;52.766;6.606;2023-02-28T04:58:26;4.30;99.90
61807;DHT22;47726;52.766;6.606;2023-02-28T05:00:54;4.30;99.90
61807;DHT22;47726;52.766;6.606;2023-02-28T05:03:20;4.30;99.90
61807;DHT22;47726;52.766;6.606;2023-02-28T05:05:47;4.30;99.90
61807;DHT22;47726;52.766;6.606;2023-02-28T05:08:13;4.30;99.90
61807;DHT22;47726;52.766;6.606;2023-02-28T05:10:38;4.20;99.90
61807;DHT22;47726;52.766;6.606;2023-02-28T05:13:04;4.20;99.90
61807;DHT22;47726;52.766;6.606;2023-02-28T05:15:30;4.20;99.90
61807;DHT22;47726;52.766;6.606;2023-02-28T05:17:56;4.20;99.90
61807;DHT22;47726;52.766;6.606;2023-02-28T05:20:21;4.20;99.90
61807;DHT22;47726;52.766;6.606;2023-02-28T05:22:47;4.20;99.90
61807;DHT22;47726;52.766;6.606;2023-02-28T05:25:21;4.20;99.90
61807;DHT22;47726;52.766;6.606;2023-02-28T05:27:47;4.20;99.90
61807;DHT22;47726;52.766;6.606;2023-02-28T05:30:13;4.20;99.90
61807;DHT22;47726;52.766;6.606;2023-02-28T05:32:39;4.20;99.90
61807;DHT22;47726;52.766;6.606;2023-02-28T05:35:09;4.20;99.90
61807;DHT22;47726;52.766;6.606;2023-02-28T05:37:36;4.20;99.90
61807;DHT22;47726;52.766;6.606;2023-02-28T05:40:02;4.20;99.90
61807;DHT22;47726;52.766;6.606;2023-02-28T05:42:31;4.20;99.90
61807;DHT22;47726;52.766;6.606;2023-02-28T05:44:57;4.20;99.90
61807;DHT22;47726;52.766;6.606;2023-02-28T05:47:22;4.20;99.90
61807;DHT22;47726;52.766;6.606;2023-02-28T05:49:48;4.20;99.90
61807;DHT22;47726;52.766;6.606;2023-02-28T05:52:13;4.20;99.90
61807;DHT22;47726;52.766;6.606;2023-02-28T05:54:39;4.20;99.90
61807;DHT22;47726;52.766;6.606;2023-02-28T05:57:04;4.20;99.90
61807;DHT22;47726;52.766;6.606;2023-02-28T05:59:30;4.20;99.90
61807;DHT22;47726;52.766;6.606;2023-02-28T06:01:55;4.20;99.90
61807;DHT22;47726;52.766;6.606;2023-02-28T06:04:21;4.20;99.90
61807;DHT22;47726;52.766;6.606;2023-02-28T06:06:48;4.20;99.90
61807;DHT22;47726;52.766;6.606;2023-02-28T06:09:14;4.20;99.90
61807;DHT22;47726;52.766;6.606;2023-02-28T06:11:40;4.20;99.90
61807;DHT22;47726;52.766;6.606;2023-02-28T06:14:06;4.20;99.90
61807;DHT22;47726;52.766;6.606;2023-02-28T06:16:32;4.20;99.90
61807;DHT22;47726;52.766;6.606;2023-02-28T06:19:01;4.10;99.90
61807;DHT22;47726;52.766;6.606;2023-02-28T06:21:27;4.20;99.90
61807;DHT22;47726;52.766;6.606;2023-02-28T06:23:54;4.20;99.90
61807;DHT22;47726;52.766;6.606;2023-02-28T06:26:20;4.10;99.90
61807;DHT22;47726;52.766;6.606;2023-02-28T06:28:46;4.20;99.90
61807;DHT22;47726;52.766;6.606;2023-02-28T06:31:14;4.10;99.90
61807;DHT22;47726;52.766;6.606;2023-02-28T06:33:41;4.10;99.90
61807;DHT22;47726;52.766;6.606;2023-02-28T06:36:07;4.10;99.90
61807;DHT22;47726;52.766;6.606;2023-02-28T06:38:33;4.10;99.90
61807;DHT22;47726;52.766;6.606;2023-02-28T06:41:00;4.10;99.90
61807;DHT22;47726;52.766;6.606;2023-02-28T06:43:29;4.10;99.90
61807;DHT22;47726;52.766;6.606;2023-02-28T06:45:56;4.10;99.90
61807;DHT22;47726;52.766;6.606;2023-02-28T06:48:22;4.10;99.90
61807;DHT22;47726;52.766;6.606;2023-02-28T06:50:48;4.10;99.90
61807;DHT22;47726;52.766;6.606;2023-02-28T06:53:14;4.10;99.90
61807;DHT22;47726;52.766;6.606;2023-02-28T06:55:40;4.10;99.90
61807;DHT22;47726;52.766;6.606;2023-02-28T06:58:06;4.10;99.90
61807;DHT22;47726;52.766;6.606;2023-02-28T07:00:52;4.10;99.90
61807;DHT22;47726;52.766;6.606;2023-02-28T07:03:18;4.10;99.90
61807;DHT22;47726;52.766;6.606;2023-02-28T07:05:44;4.10;99.90
61807;DHT22;47726;52.766;6.606;2023-02-28T07:08:10;4.10;99.90
61807;DHT22;47726;52.766;6.606;2023-02-28T07:10:40;4.10;99.90
61807;DHT22;47726;52.766;6.606;2023-02-28T07:13:11;4.10;99.90
61807;DHT22;47726;52.766;6.606;2023-02-28T07:15:37;4.10;99.90
61807;DHT22;47726;52.766;6.606;2023-02-28T07:18:03;4.10;99.90
61807;DHT22;47726;52.766;6.606;2023-02-28T07:20:29;4.10;99.90
61807;DHT22;47726;52.766;6.606;2023-02-28T07:22:58;4.10;99.90
61807;DHT22;47726;52.766;6.606;2023-02-28T07:25:25;4.10;99.90
61807;DHT22;47726;52.766;6.606;2023-02-28T07:27:51;4.10;99.90
61807;DHT22;47726;52.766;6.606;2023-02-28T07:30:17;4.10;99.90
61807;DHT22;47726;52.766;6.606;2023-02-28T07:32:42;4.10;99.90
61807;DHT22;47726;52.766;6.606;2023-02-28T07:35:08;4.10;99.90
61807;DHT22;47726;52.766;6.606;2023-02-28T07:37:34;4.10;99.90
61807;DHT22;47726;52.766;6.606;2023-02-28T07:40:04;4.20;99.90
61807;DHT22;47726;52.766;6.606;2023-02-28T07:42:35;4.20;99.90
61807;DHT22;47726;52.766;6.606;2023-02-28T07:45:01;4.20;99.90
61807;DHT22;47726;52.766;6.606;2023-02-28T07:47:29;4.20;99.90
61807;DHT22;47726;52.766;6.606;2023-02-28T07:49:55;4.20;99.90
61807;DHT22;47726;52.766;6.606;2023-02-28T07:52:21;4.20;99.90
61807;DHT22;47726;52.766;6.606;2023-02-28T07:54:49;4.30;99.90
61807;DHT22;47726;52.766;6.606;2023-02-28T07:57:14;4.30;99.90
61807;DHT22;47726;52.766;6.606;2023-02-28T07:59:40;4.40;99.90
61807;DHT22;47726;52.766;6.606;2023-02-28T08:02:05;4.40;99.90
61807;DHT22;47726;52.766;6.606;2023-02-28T08:04:32;4.60;99.90
61807;DHT22;47726;52.766;6.606;2023-02-28T08:06:58;4.90;99.90
61807;DHT22;47726;52.766;6.606;2023-02-28T08:09:24;5.10;99.90
61807;DHT22;47726;52.766;6.606;2023-02-28T08:11:49;5.40;99.90
61807;DHT22;47726;52.766;6.606;2023-02-28T08:14:15;5.60;99.90
61807;DHT22;47726;52.766;6.606;2023-02-28T08:16:43;5.90;99.90
61807;DHT22;47726;52.766;6.606;2023-02-28T08:19:09;6.10;99.90
61807;DHT22;47726;52.766;6.606;2023-02-28T08:21:35;6.40;99.90
61807;DHT22;47726;52.766;6.606;2023-02-28T08:24:00;6.70;99.90
61807;DHT22;47726;52.766;6.606;2023-02-28T08:26:26;7.00;99.90
61807;DHT22;47726;52.766;6.606;2023-02-28T08:28:51;7.30;99.90
61807;DHT22;47726;52.766;6.606;2023-02-28T08:31:17;7.70;99.90
61807;DHT22;47726;52.766;6.606;2023-02-28T08:33:43;7.90;99.90
61807;DHT22;47726;52.766;6.606;2023-02-28T08:36:15;8.20;99.90
61807;DHT22;47726;52.766;6.606;2023-02-28T08:38:40;8.50;99.90
61807;DHT22;47726;52.766;6.606;2023-02-28T08:41:09;8.70;99.90
61807;DHT22;47726;52.766;6.606;2023-02-28T08:43:35;9.00;99.90
61807;DHT22;47726;52.766;6.606;2023-02-28T08:46:01;9.00;99.90
61807;DHT22;47726;52.766;6.606;2023-02-28T08:48:29;8.90;99.90
61807;DHT22;47726;52.766;6.606;2023-02-28T08:50:59;8.90;99.90
61807;DHT22;47726;52.766;6.606;2023-02-28T08:53:25;8.90;99.90
61807;DHT22;47726;52.766;6.606;2023-02-28T08:56:04;9.10;99.90
61807;DHT22;47726;52.766;6.606;2023-02-28T08:58:30;9.30;99.90
61807;DHT22;47726;52.766;6.606;2023-02-28T09:00:56;9.50;99.90
61807;DHT22;47726;52.766;6.606;2023-02-28T09:03:22;9.80;99.90
61807;DHT22;47726;52.766;6.606;2023-02-28T09:05:54;10.10;99.90
61807;DHT22;47726;52.766;6.606;2023-02-28T09:08:21;10.10;99.90
61807;DHT22;47726;52.766;6.606;2023-02-28T09:10:47;10.00;99.90
61807;DHT22;47726;52.766;6.606;2023-02-28T09:13:12;10.10;99.90
61807;DHT22;47726;52.766;6.606;2023-02-28T09:15:38;10.20;99.90
61807;DHT22;47726;52.766;6.606;2023-02-28T09:18:04;10.40;99.90
61807;DHT22;47726;52.766;6.606;2023-02-28T09:20:30;10.50;99.90
61807;DHT22;47726;52.766;6.606;2023-02-28T09:22:55;10.70;99.90
61807;DHT22;47726;52.766;6.606;2023-02-28T09:25:21;10.80;99.90
61807;DHT22;47726;52.766;6.606;2023-02-28T09:27:46;11.00;99.90
61807;DHT22;47726;52.766;6.606;2023-02-28T09:30:13;11.10;99.90
61807;DHT22;47726;52.766;6.606;2023-02-28T09:32:38;11.30;99.90
61807;DHT22;47726;52.766;6.606;2023-02-28T09:35:05;11.30;99.90
61807;DHT22;47726;52.766;6.606;2023-02-28T09:37:31;11.40;99.90
61807;DHT22;47726;52.766;6.606;2023-02-28T09:39:57;11.40;99.90
61807;DHT22;47726;52.766;6.606;2023-02-28T09:42:30;11.50;99.90
61807;DHT22;47726;52.766;6.606;2023-02-28T09:44:57;11.60;99.90
61807;DHT22;47726;52.766;6.606;2023-02-28T09:50:15;11.70;99.90
61807;DHT22;47726;52.766;6.606;2023-02-28T09:52:44;11.70;99.90
61807;DHT22;47726;52.766;6.606;2023-02-28T09:55:22;11.70;99.90
61807;DHT22;47726;52.766;6.606;2023-02-28T09:57:50;11.80;99.90
61807;DHT22;47726;52.766;6.606;2023-02-28T10:11:15;11.70;99.00
61807;DHT22;47726;52.766;6.606;2023-02-28T10:14:02;11.70;98.80
61807;DHT22;47726;52.766;6.606;2023-02-28T10:19:04;11.50;99.20
61807;DHT22;47726;52.766;6.606;2023-02-28T10:26:36;11.20;98.00
61807;DHT22;47726;52.766;6.606;2023-02-28T10:29:02;11.00;96.60
61807;DHT22;47726;52.766;6.606;2023-02-28T10:31:28;10.90;97.20
61807;DHT22;47726;52.766;6.606;2023-02-28T10:33:55;10.90;98.60
61807;DHT22;47726;52.766;6.606;2023-02-28T10:36:21;10.80;98.20
61807;DHT22;47726;52.766;6.606;2023-02-28T10:38:47;10.80;98.30
61807;DHT22;47726;52.766;6.606;2023-02-28T10:41:28;10.70;98.00
61807;DHT22;47726;52.766;6.606;2023-02-28T10:44:17;10.60;96.40
61807;DHT22;47726;52.766;6.606;2023-02-28T10:46:45;10.60;96.20
61807;DHT22;47726;52.766;6.606;2023-02-28T10:49:26;10.60;96.70
61807;DHT22;47726;52.766;6.606;2023-02-28T10:51:56;10.70;96.90
61807;DHT22;47726;52.766;6.606;2023-02-28T10:54:36;10.70;96.60
61807;DHT22;47726;52.766;6.606;2023-02-28T10:57:19;10.80;95.00
61807;DHT22;47726;52.766;6.606;2023-02-28T10:59:45;10.80;95.60
61807;DHT22;47726;52.766;6.606;2023-02-28T11:02:34;10.90;95.60
61807;DHT22;47726;52.766;6.606;2023-02-28T11:05:00;11.00;93.70
61807;DHT22;47726;52.766;6.606;2023-02-28T11:07:26;11.10;96.00
61807;DHT22;47726;52.766;6.606;2023-02-28T11:09:55;11.20;95.80
61807;DHT22;47726;52.766;6.606;2023-02-28T11:15:02;11.30;96.40
61807;DHT22;47726;52.766;6.606;2023-02-28T11:17:31;11.30;96.00
61807;DHT22;47726;52.766;6.606;2023-02-28T11:19:59;11.30;96.10
61807;DHT22;47726;52.766;6.606;2023-02-28T11:22:31;11.30;95.90
61807;DHT22;47726;52.766;6.606;2023-02-28T11:25:00;11.30;95.20
61807;DHT22;47726;52.766;6.606;2023-02-28T11:29:55;11.40;95.30
61807;DHT22;47726;52.766;6.606;2023-02-28T11:32:23;11.40;94.70
61807;DHT22;47726;52.766;6.606;2023-02-28T11:35:02;11.40;92.60
61807;DHT22;47726;52.766;6.606;2023-02-28T11:37:29;11.40;93.90
61807;DHT22;47726;52.766;6.606;2023-02-28T11:39:55;11.40;92.80
61807;DHT22;47726;52.766;6.606;2023-02-28T11:42:43;11.50;94.30
61807;DHT22;47726;52.766;6.606;2023-02-28T11:45:15;11.50;92.90
61807;DHT22;47726;52.766;6.606;2023-02-28T11:47:58;11.50;93.10
61807;DHT22;47726;52.766;6.606;2023-02-28T11:53:22;11.50;93.40
61807;DHT22;47726;52.766;6.606;2023-02-28T11:55:58;11.50;93.30
61807;DHT22;47726;52.766;6.606;2023-02-28T11:58:34;11.50;94.70
61807;DHT22;47726;52.766;6.606;2023-02-28T12:01:38;11.50;95.00
61807;DHT22;47726;52.766;6.606;2023-02-28T12:25:51;11.50;97.20
61807;DHT22;47726;52.766;6.606;2023-02-28T12:28:25;11.60;98.00
61807;DHT22;47726;52.766;6.606;2023-02-28T12:31:18;11.60;98.60
61807;DHT22;47726;52.766;6.606;2023-02-28T12:33:50;11.60;97.20
61807;DHT22;47726;52.766;6.606;2023-02-28T12:36:19;11.60;95.20
61807;DHT22;47726;52.766;6.606;2023-02-28T12:38:55;11.50;95.40
61807;DHT22;47726;52.766;6.606;2023-02-28T12:41:48;11.50;93.80
61807;DHT22;47726;52.766;6.606;2023-02-28T12:47:09;11.40;94.40
61807;DHT22;47726;52.766;6.606;2023-02-28T12:49:41;11.40;94.90
61807;DHT22;47726;52.766;6.606;2023-02-28T12:52:08;11.30;93.90
61807;DHT22;47726;52.766;6.606;2023-02-28T12:54:44;11.30;95.60
61807;DHT22;47726;52.766;6.606;2023-02-28T13:00:13;11.20;93.30
61807;DHT22;47726;52.766;6.606;2023-02-28T13:05:32;11.20;95.30
61807;DHT22;47726;52.766;6.606;2023-02-28T13:10:48;11.00;89.70
61807;DHT22;47726;52.766;6.606;2023-02-28T13:13:21;11.00;90.60
61807;DHT22;47726;52.766;6.606;2023-02-28T13:15:58;10.90;92.60
61807;DHT22;47726;52.766;6.606;2023-02-28T13:21:00;10.80;93.10
61807;DHT22;47726;52.766;6.606;2023-02-28T13:26:16;10.80;91.10
61807;DHT22;47726;52.766;6.606;2023-02-28T13:31:14;10.80;91.50
61807;DHT22;47726;52.766;6.606;2023-02-28T13:38:55;10.70;92.10
61807;DHT22;47726;52.766;6.606;2023-02-28T13:44:09;10.60;91.90
61807;DHT22;47726;52.766;6.606;2023-02-28T14:06:15;10.50;91.40
61807;DHT22;47726;52.766;6.606;2023-02-28T14:09:35;10.50;93.20
61807;DHT22;47726;52.766;6.606;2023-02-28T14:11:43;10.40;91.50
61807;DHT22;47726;52.766;6.606;2023-02-28T14:17:03;10.40;91.00
61807;DHT22;47726;52.766;6.606;2023-02-28T14:19:31;10.30;90.40
61807;DHT22;47726;52.766;6.606;2023-02-28T14:25:16;10.40;92.20
61807;DHT22;47726;52.766;6.606;2023-02-28T14:31:00;10.20;90.70
61807;DHT22;47726;52.766;6.606;2023-02-28T14:36:10;10.00;91.80
61807;DHT22;47726;52.766;6.606;2023-02-28T14:38:45;10.00;93.00
61807;DHT22;47726;52.766;6.606;2023-02-28T14:41:29;10.00;93.70
61807;DHT22;47726;52.766;6.606;2023-02-28T14:43:57;10.00;92.80
61807;DHT22;47726;52.766;6.606;2023-02-28T14:46:50;10.00;93.60
61807;DHT22;47726;52.766;6.606;2023-02-28T14:49:20;10.00;92.40
61807;DHT22;47726;52.766;6.606;2023-02-28T14:51:49;10.10;94.00
61807;DHT22;47726;52.766;6.606;2023-02-28T14:54:16;10.10;93.90
61807;DHT22;47726;52.766;6.606;2023-02-28T14:56:48;10.00;93.70
61807;DHT22;47726;52.766;6.606;2023-02-28T14:59:32;10.10;94.50
61807;DHT22;47726;52.766;6.606;2023-02-28T15:02:20;10.00;92.40
61807;DHT22;47726;52.766;6.606;2023-02-28T15:04:54;9.90;91.20
61807;DHT22;47726;52.766;6.606;2023-02-28T15:07:21;9.90;94.00
61807;DHT22;47726;52.766;6.606;2023-02-28T15:12:43;9.90;94.50
61807;DHT22;47726;52.766;6.606;2023-02-28T15:15:18;9.90;93.70
61807;DHT22;47726;52.766;6.606;2023-02-28T15:17:51;9.90;94.00
61807;DHT22;47726;52.766;6.606;2023-02-28T15:20:18;9.80;92.80
61807;DHT22;47726;52.766;6.606;2023-02-28T15:22:46;9.70;92.00
61807;DHT22;47726;52.766;6.606;2023-02-28T15:25:18;9.70;92.30
61807;DHT22;47726;52.766;6.606;2023-02-28T15:27:50;9.70;92.60
61807;DHT22;47726;52.766;6.606;2023-02-28T15:32:44;9.60;94.00
61807;DHT22;47726;52.766;6.606;2023-02-28T15:38:01;9.50;94.60
61807;DHT22;47726;52.766;6.606;2023-02-28T15:40:30;9.50;92.80
61807;DHT22;47726;52.766;6.606;2023-02-28T15:43:18;9.50;93.80
61807;DHT22;47726;52.766;6.606;2023-02-28T15:45:50;9.50;94.20
61807;DHT22;47726;52.766;6.606;2023-02-28T15:48:23;9.40;94.10
61807;DHT22;47726;52.766;6.606;2023-02-28T15:50:55;9.30;93.10
61807;DHT22;47726;52.766;6.606;2023-02-28T15:53:51;9.30;95.20
61807;DHT22;47726;52.766;6.606;2023-02-28T15:59:15;9.30;96.40
61807;DHT22;47726;52.766;6.606;2023-02-28T16:01:42;9.30;95.80
61807;DHT22;47726;52.766;6.606;2023-02-28T16:04:16;9.30;96.40
61807;DHT22;47726;52.766;6.606;2023-02-28T16:06:47;9.20;95.80
61807;DHT22;47726;52.766;6.606;2023-02-28T16:09:25;9.20;97.50
61807;DHT22;47726;52.766;6.606;2023-02-28T16:11:54;9.20;97.50
61807;DHT22;47726;52.766;6.606;2023-02-28T16:14:22;9.10;96.70
61807;DHT22;47726;52.766;6.606;2023-02-28T16:16:56;9.10;97.40
61807;DHT22;47726;52.766;6.606;2023-02-28T16:19:23;9.10;97.80
61807;DHT22;47726;52.766;6.606;2023-02-28T16:21:49;9.10;97.70
61807;DHT22;47726;52.766;6.606;2023-02-28T16:24:15;9.00;97.90
61807;DHT22;47726;52.766;6.606;2023-02-28T16:26:41;9.00;98.20
61807;DHT22;47726;52.766;6.606;2023-02-28T16:29:09;9.00;98.20
61807;DHT22;47726;52.766;6.606;2023-02-28T16:31:38;9.00;98.60
61807;DHT22;47726;52.766;6.606;2023-02-28T16:34:04;8.90;98.80
61807;DHT22;47726;52.766;6.606;2023-02-28T16:36:30;8.90;98.20
61807;DHT22;47726;52.766;6.606;2023-02-28T16:38:56;8.80;98.60
61807;DHT22;47726;52.766;6.606;2023-02-28T16:41:24;8.80;98.80
61807;DHT22;47726;52.766;6.606;2023-02-28T16:43:53;8.70;99.10
61807;DHT22;47726;52.766;6.606;2023-02-28T16:46:24;8.70;99.20
61807;DHT22;47726;52.766;6.606;2023-02-28T16:48:50;8.60;98.30
61807;DHT22;47726;52.766;6.606;2023-02-28T16:51:17;8.50;98.70
61807;DHT22;47726;52.766;6.606;2023-02-28T16:53:44;8.50;99.10
61807;DHT22;47726;52.766;6.606;2023-02-28T16:56:16;8.40;98.80
61807;DHT22;47726;52.766;6.606;2023-02-28T16:58:42;8.40;98.60
61807;DHT22;47726;52.766;6.606;2023-02-28T17:01:08;8.30;98.40
61807;DHT22;47726;52.766;6.606;2023-02-28T17:03:34;8.20;99.10
61807;DHT22;47726;52.766;6.606;2023-02-28T17:06:02;8.20;99.40
61807;DHT22;47726;52.766;6.606;2023-02-28T17:08:28;8.10;99.20
61807;DHT22;47726;52.766;6.606;2023-02-28T17:10:55;8.10;99.40
61807;DHT22;47726;52.766;6.606;2023-02-28T17:13:21;8.00;99.10
61807;DHT22;47726;52.766;6.606;2023-02-28T17:15:46;8.00;99.40
61807;DHT22;47726;52.766;6.606;2023-02-28T17:18:15;7.90;99.30
61807;DHT22;47726;52.766;6.606;2023-02-28T17:20:41;7.80;99.20
61807;DHT22;47726;52.766;6.606;2023-02-28T17:23:08;7.80;99.10
61807;DHT22;47726;52.766;6.606;2023-02-28T17:25:33;7.70;99.20
61807;DHT22;47726;52.766;6.606;2023-02-28T17:27:59;7.70;99.10
61807;DHT22;47726;52.766;6.606;2023-02-28T17:30:26;7.60;99.10
61807;DHT22;47726;52.766;6.606;2023-02-28T17:32:56;7.60;99.20
61807;DHT22;47726;52.766;6.606;2023-02-28T17:35:22;7.50;99.50
61807;DHT22;47726;52.766;6.606;2023-02-28T17:37:48;7.40;99.40
61807;DHT22;47726;52.766;6.606;2023-02-28T17:40:22;7.40;99.60
61807;DHT22;47726;52.766;6.606;2023-02-28T17:42:48;7.30;99.80
61807;DHT22;47726;52.766;6.606;2023-02-28T17:45:14;7.20;99.90
61807;DHT22;47726;52.766;6.606;2023-02-28T17:47:41;7.20;99.90
61807;DHT22;47726;52.766;6.606;2023-02-28T17:50:17;7.10;99.90
61807;DHT22;47726;52.766;6.606;2023-02-28T17:52:43;7.10;99.90
61807;DHT22;47726;52.766;6.606;2023-02-28T17:55:10;7.00;99.90
61807;DHT22;47726;52.766;6.606;2023-02-28T17:57:36;6.90;99.90
61807;DHT22;47726;52.766;6.606;2023-02-28T18:00:02;6.90;99.90
61807;DHT22;47726;52.766;6.606;2023-02-28T18:02:32;6.80;99.90
61807;DHT22;47726;52.766;6.606;2023-02-28T18:04:57;6.80;99.90
61807;DHT22;47726;52.766;6.606;2023-02-28T18:07:24;6.70;99.90
61807;DHT22;47726;52.766;6.606;2023-02-28T18:09:50;6.70;99.90
61807;DHT22;47726;52.766;6.606;2023-02-28T18:12:15;6.60;99.90
61807;DHT22;47726;52.766;6.606;2023-02-28T18:14:41;6.60;99.90
61807;DHT22;47726;52.766;6.606;2023-02-28T18:17:09;6.50;99.90
61807;DHT22;47726;52.766;6.606;2023-02-28T18:19:37;6.40;99.90